Terminal Aerodrome Forecast
Issued by NWS Atlanta, GA

Home | Current Version | Previous Version | Text Only | Print | Product List | Glossary On
Versions: 1 2 3 4 5 6 7 8 9 10 11 12 13 14 15 16 17 18 19 20 21 22 23 24 25 26 27 28 29 30 31 32 33 34 35 36 37 38 39 40 41 42 43 44 45 46 47 48
000
FTUS42 KFFC 211345 AAB
TAFATL
TAF AMD
KATL 211345Z 2114/2218 07008KT 4SM BR OVC006
      TEMPO 2114/2115 2SM BR OVC003
     FM211600 07008KT 4SM BR OVC007
     FM211800 08008KT P6SM OVC012
     FM220400 09006KT 6SM BR OVC007
     FM220900 07008KT 4SM BR OVC004
     FM221500 09009KT 6SM BR OVC007=

USA.gov is the U.S. government's official web portal to all federal, state and local government web resources and services.